Time;durP1;ratioP1;P1;durP2;ratioP2;P2;SDS_P1;SDS_P2;PMS_P1;PMS_P2;Temp;Humidity;BMP_temperature;BMP_pressure;BME280_temperature;BME280_humidity;BME280_pressure;Samples;Min_cycle;Max_cycle;Signal;HPM_P1;HPM_P2
2023/10/17 00:02:00;;;;;;;3.25;1.45;;;;;;;;;;4974061;28;20033;-63
2023/10/17 00:04:27;;;;;;;3.80;1.13;;;;;;;;;;4955644;28;20106;-63
2023/10/17 00:06:58;;;;;;;4.30;1.35;;;;;;;;;;4955138;28;20035;-63
2023/10/17 00:09:24;;;;;;;1.70;1.13;;;;;;;;;;4955015;28;20038;-63
2023/10/17 00:14:23;;;;;;;7.50;3.45;;;;;;;;;;4954941;28;20035;-63
2023/10/17 00:16:58;;;;;;;9.80;2.80;;;;;;;;;;4955018;28;20366;-63
2023/10/17 00:19:28;;;;;;;7.88;3.30;;;;;;;;;;4954478;28;20038;-63
2023/10/17 00:21:53;;;;;;;7.25;3.15;;;;;;;;;;4954793;28;20034;-64
2023/10/17 00:24:19;;;;;;;7.28;3.10;;;;;;;;;;4954727;29;20023;-63
2023/10/17 00:26:47;;;;;;;7.00;3.97;;;;;;;;;;4954786;28;20028;-63
2023/10/17 00:29:13;;;;;;;9.13;3.78;;;;;;;;;;4954683;28;20054;-64
2023/10/17 00:31:39;;;;;;;11.65;3.97;;;;;;;;;;4954406;28;20039;-64
2023/10/17 00:34:15;;;;;;;9.07;4.20;;;;;;;;;;4965312;28;20038;-64
2023/10/17 00:36:47;;;;;;;13.25;4.32;;;;;;;;;;4973934;28;20026;-64
2023/10/17 00:39:17;;;;;;;6.90;3.83;;;;;;;;;;4973788;28;20333;-64
2023/10/17 00:44:44;;;;;;;5.38;3.28;;;;;;;;;;4969050;28;20071;-64
2023/10/17 00:47:18;;;;;;;9.10;3.38;;;;;;;;;;4973190;28;20034;-64
2023/10/17 00:49:45;;;;;;;7.07;3.22;;;;;;;;;;4963469;28;20058;-63
2023/10/17 00:52:32;;;;;;;7.03;2.90;;;;;;;;;;4963599;28;20461;-64
2023/10/17 00:54:59;;;;;;;7.88;3.35;;;;;;;;;;4964618;28;20034;-63
2023/10/17 00:57:28;;;;;;;5.30;2.92;;;;;;;;;;4962960;28;20062;-63
2023/10/17 00:59:57;;;;;;;7.07;2.92;;;;;;;;;;4963095;28;20062;-63
2023/10/17 01:02:25;;;;;;;8.65;3.25;;;;;;;;;;4966802;28;20065;-64
2023/10/17 01:04:59;;;;;;;6.72;3.20;;;;;;;;;;4966261;28;20027;-64
2023/10/17 01:07:34;;;;;;;8.27;3.22;;;;;;;;;;4963002;28;20485;-63
2023/10/17 01:10:10;;;;;;;5.45;2.78;;;;;;;;;;4964776;28;20019;-64
2023/10/17 01:12:54;;;;;;;9.90;2.72;;;;;;;;;;4968431;28;20081;-64
2023/10/17 01:15:27;;;;;;;6.53;3.30;;;;;;;;;;4967973;28;20122;-63
2023/10/17 01:17:57;;;;;;;5.97;3.03;;;;;;;;;;4967612;28;20031;-63
2023/10/17 01:20:23;;;;;;;6.07;2.55;;;;;;;;;;4966028;28;20034;-65
2023/10/17 01:22:48;;;;;;;6.75;2.92;;;;;;;;;;4967419;28;20035;-64
2023/10/17 01:25:27;;;;;;;5.90;2.88;;;;;;;;;;4967461;28;20019;-63
2023/10/17 01:27:54;;;;;;;6.20;2.55;;;;;;;;;;4967432;28;20077;-63
2023/10/17 01:30:20;;;;;;;5.13;2.53;;;;;;;;;;4964438;28;20385;-63
2023/10/17 01:32:48;;;;;;;6.13;2.83;;;;;;;;;;4967819;28;20047;-64
2023/10/17 01:35:16;;;;;;;7.60;2.90;;;;;;;;;;4968562;28;20038;-64
2023/10/17 01:37:47;;;;;;;4.93;2.95;;;;;;;;;;4966079;28;20027;-64
2023/10/17 01:40:23;;;;;;;5.22;3.00;;;;;;;;;;4966439;28;20117;-65
2023/10/17 01:42:52;;;;;;;5.15;2.45;;;;;;;;;;4966591;28;20545;-64
2023/10/17 01:45:23;;;;;;;5.10;2.78;;;;;;;;;;4965482;28;20059;-64
2023/10/17 01:47:48;;;;;;;;;;;;;;;;;;4969432;28;20034;-65
2023/10/17 01:50:14;;;;;;;3.22;2.15;;;;;;;;;;4976807;28;19921;-64
2023/10/17 01:52:42;;;;;;;5.55;2.58;;;;;;;;;;4976685;28;20035;-63
2023/10/17 01:55:11;;;;;;;4.43;2.22;;;;;;;;;;4976555;28;20516;-64
2023/10/17 01:57:40;;;;;;;4.35;2.40;;;;;;;;;;4976567;28;20073;-63
2023/10/17 02:02:55;;;;;;;4.82;2.95;;;;;;;;;;4976724;28;20033;-63
2023/10/17 02:05:22;;;;;;;6.68;3.05;;;;;;;;;;4976281;28;20030;-63
2023/10/17 02:07:48;;;;;;;7.18;3.05;;;;;;;;;;4976389;28;20052;-64
2023/10/17 02:10:18;;;;;;;6.03;3.13;;;;;;;;;;4976531;28;20058;-63
2023/10/17 02:12:44;;;;;;;5.22;3.30;;;;;;;;;;4975175;28;20055;-64
2023/10/17 02:15:12;;;;;;;5.32;3.00;;;;;;;;;;4976209;28;20030;-63
2023/10/17 02:17:38;;;;;;;7.93;3.20;;;;;;;;;;4976321;28;20035;-64
2023/10/17 02:20:20;;;;;;;6.05;2.88;;;;;;;;;;4976213;28;20029;-63
2023/10/17 02:22:49;;;;;;;5.10;2.85;;;;;;;;;;4975332;28;20396;-65
2023/10/17 02:25:16;;;;;;;6.97;2.65;;;;;;;;;;4975875;28;20035;-64
2023/10/17 02:27:43;;;;;;;6.38;2.78;;;;;;;;;;4975817;28;20034;-64
2023/10/17 02:30:13;;;;;;;4.97;2.55;;;;;;;;;;4974809;28;20031;-64
2023/10/17 02:32:51;;;;;;;6.60;2.43;;;;;;;;;;4975765;28;20381;-64
2023/10/17 02:35:18;;;;;;;4.95;2.60;;;;;;;;;;4956571;28;20410;-62
2023/10/17 02:37:44;;;;;;;4.97;2.55;;;;;;;;;;4956364;28;20023;-62
2023/10/17 02:40:20;;;;;;;5.30;2.25;;;;;;;;;;4956436;28;20057;-64
2023/10/17 02:42:47;;;;;;;5.10;2.80;;;;;;;;;;4956410;28;20086;-64
2023/10/17 02:45:12;;;;;;;3.55;2.05;;;;;;;;;;4956490;28;20437;-64
2023/10/17 02:47:39;;;;;;;3.95;2.50;;;;;;;;;;4956412;28;20031;-64
2023/10/17 02:50:21;;;;;;;5.82;2.38;;;;;;;;;;4956451;28;20127;-64
2023/10/17 02:52:51;;;;;;;3.55;2.20;;;;;;;;;;4956329;28;20023;-64
2023/10/17 02:55:25;;;;;;;3.93;1.77;;;;;;;;;;4956318;28;20041;-64
2023/10/17 02:57:52;;;;;;;5.90;2.70;;;;;;;;;;4956161;28;20432;-64
2023/10/17 03:00:33;;;;;;;5.18;2.17;;;;;;;;;;4955986;28;20118;-64
2023/10/17 03:02:59;;;;;;;5.07;2.20;;;;;;;;;;4974488;28;20027;-64
2023/10/17 03:05:27;;;;;;;2.80;1.70;;;;;;;;;;4975419;28;20097;-63
2023/10/17 03:07:53;;;;;;;3.00;1.88;;;;;;;;;;4975381;28;20471;-64
2023/10/17 03:10:36;;;;;;;2.72;1.60;;;;;;;;;;4975352;28;20035;-63
2023/10/17 03:13:14;;;;;;;2.65;1.73;;;;;;;;;;4974979;28;20151;-63
2023/10/17 03:15:46;;;;;;;3.83;2.10;;;;;;;;;;4975369;28;20030;-63
2023/10/17 03:18:15;;;;;;;2.95;1.95;;;;;;;;;;4975267;28;20421;-64
2023/10/17 03:20:41;;;;;;;3.05;1.88;;;;;;;;;;4975125;28;20042;-63
2023/10/17 03:23:10;;;;;;;3.28;2.08;;;;;;;;;;4975048;28;20113;-63
2023/10/17 03:25:39;;;;;;;3.47;1.80;;;;;;;;;;4974691;28;20109;-63
2023/10/17 03:28:13;;;;;;;4.00;2.22;;;;;;;;;;4975052;28;20027;-64
2023/10/17 03:30:39;;;;;;;6.03;2.28;;;;;;;;;;4974833;28;20022;-63
2023/10/17 03:33:08;;;;;;;3.42;1.88;;;;;;;;;;4974324;28;20149;-63
2023/10/17 03:38:23;;;;;;;4.30;2.30;;;;;;;;;;4975053;28;20034;-64
2023/10/17 03:40:53;;;;;;;3.38;2.15;;;;;;;;;;4974464;28;20039;-63
2023/10/17 03:43:21;;;;;;;6.13;1.60;;;;;;;;;;4974610;28;20468;-63
2023/10/17 03:45:56;;;;;;;5.22;2.20;;;;;;;;;;4974558;28;20461;-63
2023/10/17 03:48:23;;;;;;;4.88;2.05;;;;;;;;;;4974490;28;20031;-63
2023/10/17 03:50:59;;;;;;;3.78;2.00;;;;;;;;;;4974601;28;20019;-64
2023/10/17 03:55:50;;;;;;;6.13;2.00;;;;;;;;;;4974278;28;20054;-63
2023/10/17 03:59:18;;;;;;;7.20;2.45;;;;;;;;;;4974476;28;20054;-63
2023/10/17 04:01:08;;;;;;;4.68;1.90;;;;;;;;;;4970157;28;20492;-63
2023/10/17 04:03:34;;;;;;;3.08;1.90;;;;;;;;;;4974417;28;20027;-63
2023/10/17 04:08:49;;;;;;;2.95;1.85;;;;;;;;;;4974298;28;20030;-63
2023/10/17 04:14:00;;;;;;;5.00;1.80;;;;;;;;;;4974191;28;20031;-63
2023/10/17 04:16:39;;;;;;;5.13;2.03;;;;;;;;;;4974233;28;20027;-63
2023/10/17 04:19:07;;;;;;;3.65;2.00;;;;;;;;;;4972633;28;20023;-63
2023/10/17 04:21:38;;;;;;;2.95;1.83;;;;;;;;;;4973915;28;20464;-64
2023/10/17 04:24:06;;;;;;;;;;;;;;;;;;4974024;28;20034;-63
2023/10/17 04:26:44;;;;;;;4.38;2.20;;;;;;;;;;4973741;28;19918;-65
2023/10/17 04:29:17;;;;;;;3.50;2.13;;;;;;;;;;4973908;28;20037;-64
2023/10/17 04:31:43;;;;;;;3.28;1.70;;;;;;;;;;4973887;28;20174;-63
2023/10/17 04:34:14;;;;;;;5.47;1.90;;;;;;;;;;4973817;28;20487;-63
2023/10/17 04:36:41;;;;;;;2.70;1.85;;;;;;;;;;4974003;28;20031;-63
2023/10/17 04:39:25;;;;;;;3.67;2.28;;;;;;;;;;4973556;28;20031;-63
2023/10/17 04:42:04;;;;;;;3.03;1.80;;;;;;;;;;4973789;28;20031;-63
2023/10/17 04:44:50;;;;;;;3.33;1.70;;;;;;;;;;4973890;28;20027;-63
2023/10/17 04:49:53;;;;;;;3.63;1.95;;;;;;;;;;4977862;28;20404;-63
2023/10/17 04:52:29;;;;;;;5.38;2.10;;;;;;;;;;4976564;28;20081;-62
2023/10/17 04:55:01;;;;;;;3.95;2.03;;;;;;;;;;4977719;28;20101;-64
2023/10/17 04:57:54;;;;;;;4.15;2.58;;;;;;;;;;4977802;28;20369;-63
2023/10/17 05:00:25;;;;;;;5.50;2.30;;;;;;;;;;4977549;28;20385;-64
2023/10/17 05:05:40;;;;;;;6.95;1.95;;;;;;;;;;4977775;28;20069;-64
2023/10/17 05:08:18;;;;;;;4.55;2.00;;;;;;;;;;4977403;28;20092;-63
2023/10/17 06:16:51;;;;;;;3.40;2.20;;;;;;;;;;4842180;29;20048;-64
2023/10/17 06:19:21;;;;;;;6.43;2.42;;;;;;;;;;4853658;29;20047;-64
2023/10/17 06:34:38;;;;;;;5.63;2.80;;;;;;;;;;4945422;28;20496;-64
2023/10/17 06:37:07;;;;;;;6.55;2.35;;;;;;;;;;4975732;28;20026;-64
2023/10/17 06:39:45;;;;;;;5.80;3.10;;;;;;;;;;4975622;28;20547;-64
2023/10/17 06:42:14;;;;;;;6.75;2.70;;;;;;;;;;4968994;28;20113;-64
2023/10/17 06:47:31;;;;;;;4.40;2.92;;;;;;;;;;4981365;28;20165;-64
2023/10/17 06:53:11;;;;;;;5.30;2.80;;;;;;;;;;4956092;28;20027;-64
2023/10/17 06:55:35;;;;;;;3.17;2.03;;;;;;;;;;4955419;29;20170;-63
2023/10/17 06:58:09;;;;;;;4.35;2.70;;;;;;;;;;4955951;29;20035;-63
2023/10/17 07:00:51;;;;;;;4.25;2.35;;;;;;;;;;4976253;28;20042;-64
2023/10/17 07:03:24;;;;;;;6.57;2.53;;;;;;;;;;4965932;28;20142;-62
2023/10/17 07:05:51;;;;;;;3.30;2.30;;;;;;;;;;4973591;28;20484;-62
2023/10/17 07:08:19;;;;;;;4.38;2.40;;;;;;;;;;4974558;28;20093;-62
2023/10/17 07:16:48;;;;;;;5.72;2.38;;;;;;;;;;4959961;28;20118;-62
2023/10/17 07:24:36;;;;;;;5.60;2.80;;;;;;;;;;4972386;28;20110;-62
2023/10/17 07:27:11;;;;;;;5.55;2.50;;;;;;;;;;4972511;28;20034;-62
2023/10/17 07:29:38;;;;;;;7.35;3.17;;;;;;;;;;4958725;28;20572;-62
2023/10/17 07:32:09;;;;;;;9.07;2.55;;;;;;;;;;4952956;29;20449;-62
2023/10/17 07:34:36;;;;;;;7.57;2.75;;;;;;;;;;4952934;28;20076;-62
2023/10/17 07:37:22;;;;;;;4.78;2.83;;;;;;;;;;4943508;29;20040;-62
2023/10/17 07:40:18;;;;;;;4.45;2.83;;;;;;;;;;4918056;29;20047;-63
2023/10/17 07:42:45;;;;;;;5.07;2.65;;;;;;;;;;4933816;29;20027;-62
2023/10/17 07:45:14;;;;;;;3.42;2.38;;;;;;;;;;4946987;29;20031;-62
2023/10/17 07:47:51;;;;;;;4.43;2.35;;;;;;;;;;4952546;28;20023;-62
2023/10/17 07:50:16;;;;;;;13.02;2.78;;;;;;;;;;4960866;28;20439;-63
2023/10/17 07:52:50;;;;;;;4.18;2.20;;;;;;;;;;4993526;28;20026;-63
2023/10/17 07:55:18;;;;;;;7.20;2.53;;;;;;;;;;4993477;28;20118;-63
2023/10/17 07:57:51;;;;;;;9.27;4.03;;;;;;;;;;4993464;28;20022;-63
2023/10/17 08:00:26;;;;;;;5.18;2.42;;;;;;;;;;4993429;28;20046;-63
2023/10/17 08:03:00;;;;;;;5.63;2.20;;;;;;;;;;4993327;28;20034;-65
2023/10/17 08:05:34;;;;;;;8.30;2.70;;;;;;;;;;4993424;28;20038;-63
2023/10/17 08:08:13;;;;;;;3.75;2.10;;;;;;;;;;4993452;28;20046;-63
2023/10/17 08:10:39;;;;;;;8.60;3.60;;;;;;;;;;4993389;28;20053;-63
2023/10/17 08:13:07;;;;;;;9.73;3.90;;;;;;;;;;4993340;28;20453;-63
2023/10/17 08:15:51;;;;;;;6.50;2.65;;;;;;;;;;4993293;28;20068;-63
2023/10/17 08:18:22;;;;;;;8.57;3.15;;;;;;;;;;4993444;28;20041;-63
2023/10/17 08:21:07;;;;;;;7.47;2.70;;;;;;;;;;4992678;28;20042;-63
2023/10/17 08:23:34;;;;;;;6.60;2.47;;;;;;;;;;4993357;28;20096;-63
2023/10/17 08:26:00;;;;;;;7.45;3.13;;;;;;;;;;4992960;28;20089;-63
2023/10/17 08:36:28;;;;;;;6.25;2.60;;;;;;;;;;4973554;28;20074;-63
2023/10/17 08:38:54;;;;;;;5.43;2.70;;;;;;;;;;4973730;28;20030;-64
2023/10/17 08:41:23;;;;;;;7.57;2.80;;;;;;;;;;4973587;28;20563;-63
2023/10/17 08:43:49;;;;;;;3.55;2.30;;;;;;;;;;4970684;28;20527;-63
2023/10/17 08:46:17;;;;;;;5.47;2.45;;;;;;;;;;4972959;28;20105;-63
2023/10/17 08:48:43;;;;;;;6.10;2.33;;;;;;;;;;4973646;28;20040;-63
2023/10/17 08:51:12;;;;;;;7.18;2.70;;;;;;;;;;4984179;28;20026;-64
2023/10/17 08:53:39;;;;;;;5.45;2.30;;;;;;;;;;4992948;28;20110;-64
2023/10/17 08:56:07;;;;;;;5.65;2.60;;;;;;;;;;4992901;28;20041;-63
2023/10/17 08:58:33;;;;;;;8.90;2.88;;;;;;;;;;4993019;28;20018;-63
2023/10/17 09:01:10;;;;;;;9.05;2.80;;;;;;;;;;4992685;28;20041;-63
2023/10/17 09:03:41;;;;;;;9.52;3.33;;;;;;;;;;4992832;28;20026;-63
2023/10/17 09:11:41;;;;;;;8.43;2.00;;;;;;;;;;4993042;28;20084;-63
2023/10/17 09:14:26;;;;;;;4.13;1.65;;;;;;;;;;4992485;28;20046;-62
2023/10/17 09:17:21;;;;;;;7.28;1.90;;;;;;;;;;4992812;28;20069;-63
2023/10/17 09:19:50;;;;;;;3.80;1.70;;;;;;;;;;4992644;28;20034;-62
2023/10/17 09:22:17;;;;;;;5.87;1.80;;;;;;;;;;4992642;28;20419;-63
2023/10/17 09:24:50;;;;;;;12.02;2.05;;;;;;;;;;4992824;28;20510;-63
2023/10/17 09:27:18;;;;;;;7.22;2.05;;;;;;;;;;4992583;28;20031;-63
2023/10/17 09:29:52;;;;;;;5.30;2.20;;;;;;;;;;4992446;28;20035;-63
2023/10/17 09:32:36;;;;;;;3.78;1.85;;;;;;;;;;4993783;28;20101;-64
2023/10/17 09:35:15;;;;;;;4.90;2.13;;;;;;;;;;4977334;28;20074;-63
2023/10/17 09:37:45;;;;;;;6.70;1.80;;;;;;;;;;4976581;28;20023;-62
2023/10/17 09:40:14;;;;;;;5.18;1.70;;;;;;;;;;4976643;28;20484;-62
2023/10/17 09:42:44;;;;;;;5.57;1.70;;;;;;;;;;4976380;28;20105;-62
2023/10/17 09:45:13;;;;;;;;;;;;;;;;;;4973477;28;20029;-63
2023/10/17 09:47:42;;;;;;;6.90;2.10;;;;;;;;;;4976496;28;19925;-63
2023/10/17 09:50:12;;;;;;;3.85;1.80;;;;;;;;;;4978809;28;20472;-63
2023/10/17 09:52:39;;;;;;;5.78;2.00;;;;;;;;;;4995844;28;20034;-64
2023/10/17 09:55:07;;;;;;;6.80;1.92;;;;;;;;;;4995795;28;20424;-63
2023/10/17 09:57:37;;;;;;;3.60;1.60;;;;;;;;;;4995708;28;20121;-65
2023/10/17 10:00:15;;;;;;;4.20;1.40;;;;;;;;;;4995741;28;20117;-64
2023/10/17 10:02:43;;;;;;;4.13;1.50;;;;;;;;;;4995751;28;20038;-63
2023/10/17 10:05:26;;;;;;;6.55;1.45;;;;;;;;;;4995624;28;20032;-62
2023/10/17 10:07:52;;;;;;;6.03;1.70;;;;;;;;;;4995633;28;20057;-62
2023/10/17 10:10:44;;;;;;;5.55;1.88;;;;;;;;;;4995616;28;20060;-62
2023/10/17 10:13:15;;;;;;;4.00;1.23;;;;;;;;;;4994965;28;20476;-62
2023/10/17 10:16:10;;;;;;;2.92;1.40;;;;;;;;;;4995646;28;20034;-62
2023/10/17 10:18:35;;;;;;;2.92;1.52;;;;;;;;;;4990903;28;20042;-62
2023/10/17 10:21:02;;;;;;;3.85;1.23;;;;;;;;;;4995497;28;20551;-63
2023/10/17 10:23:39;;;;;;;3.83;1.10;;;;;;;;;;4995326;28;20041;-63
2023/10/17 10:26:19;;;;;;;8.48;1.83;;;;;;;;;;4995142;28;20026;-65
2023/10/17 10:28:48;;;;;;;3.65;1.33;;;;;;;;;;4995419;28;20041;-63
2023/10/17 10:31:22;;;;;;;2.92;1.15;;;;;;;;;;4995120;28;20109;-64
2023/10/17 10:33:55;;;;;;;4.43;1.30;;;;;;;;;;4986229;28;20210;-63
2023/10/17 10:36:23;;;;;;;4.03;1.40;;;;;;;;;;4975527;28;20479;-62
2023/10/17 10:38:49;;;;;;;4.07;1.20;;;;;;;;;;4975656;28;20045;-62
2023/10/17 10:41:15;;;;;;;7.30;1.48;;;;;;;;;;4975191;28;20114;-63
2023/10/17 10:43:44;;;;;;;4.65;1.30;;;;;;;;;;4974556;28;20519;-63
2023/10/17 10:46:11;;;;;;;4.65;1.40;;;;;;;;;;4975164;28;20035;-64
2023/10/17 10:48:45;;;;;;;6.93;1.63;;;;;;;;;;4975477;28;20030;-63
2023/10/17 10:51:15;;;;;;;2.13;0.98;;;;;;;;;;4986043;28;20057;-63
2023/10/17 10:53:41;;;;;;;;;;;;;;;;;;4995261;28;20041;-63
2023/10/17 10:56:15;;;;;;;3.38;1.17;;;;;;;;;;4986913;28;19914;-63
2023/10/17 10:58:55;;;;;;;6.32;1.10;;;;;;;;;;4975343;28;20042;-63
2023/10/17 11:01:25;;;;;;;4.03;1.02;;;;;;;;;;4975109;28;20023;-62
2023/10/17 11:03:51;;;;;;;6.45;1.30;;;;;;;;;;4975089;28;20035;-63
2023/10/17 11:06:24;;;;;;;6.13;1.20;;;;;;;;;;4975010;28;20415;-63
2023/10/17 11:08:51;;;;;;;3.45;1.15;;;;;;;;;;4975150;28;20377;-63
2023/10/17 11:11:18;;;;;;;4.03;1.13;;;;;;;;;;4974811;28;20113;-64
2023/10/17 11:13:45;;;;;;;3.75;0.93;;;;;;;;;;4974979;28;20022;-63
2023/10/17 11:16:16;;;;;;;2.17;0.90;;;;;;;;;;4974843;28;20051;-64
2023/10/17 11:18:45;;;;;;;3.45;0.85;;;;;;;;;;4974920;28;20070;-64
2023/10/17 11:21:11;;;;;;;3.85;1.17;;;;;;;;;;4974515;28;20035;-64
2023/10/17 11:23:40;;;;;;;3.03;1.10;;;;;;;;;;4974642;28;20173;-66
2023/10/17 11:26:12;;;;;;;5.13;1.60;;;;;;;;;;4974521;28;20377;-63
2023/10/17 11:28:46;;;;;;;3.05;1.13;;;;;;;;;;4974793;28;20472;-63
2023/10/17 11:31:22;;;;;;;4.55;0.95;;;;;;;;;;4974613;28;20031;-63
2023/10/17 11:33:59;;;;;;;8.25;1.83;;;;;;;;;;4974238;28;20038;-63
2023/10/17 11:36:37;;;;;;;2.75;0.93;;;;;;;;;;4974423;28;20481;-64
2023/10/17 11:39:08;;;;;;;2.67;1.10;;;;;;;;;;4974369;28;20058;-64
2023/10/17 11:41:47;;;;;;;7.55;1.13;;;;;;;;;;4974501;28;20038;-65
2023/10/17 11:44:15;;;;;;;5.07;1.10;;;;;;;;;;4971020;28;20038;-64
2023/10/17 11:46:55;;;;;;;3.55;1.13;;;;;;;;;;4974203;28;20053;-64
2023/10/17 11:49:26;;;;;;;7.03;1.55;;;;;;;;;;4974320;28;20080;-64
2023/10/17 11:52:12;;;;;;;3.08;1.25;;;;;;;;;;4990633;28;20034;-63
2023/10/17 11:55:03;;;;;;;6.30;1.13;;;;;;;;;;4993315;28;20113;-64
2023/10/17 11:57:31;;;;;;;5.07;1.35;;;;;;;;;;4993699;28;20073;-64
2023/10/17 12:02:42;;;;;;;5.75;0.98;;;;;;;;;;4993559;28;20462;-64
2023/10/17 12:05:17;;;;;;;2.85;1.00;;;;;;;;;;4993417;28;20110;-64
2023/10/17 12:07:43;;;;;;;2.50;0.88;;;;;;;;;;4993401;28;20050;-64
2023/10/17 12:10:09;;;;;;;4.60;1.10;;;;;;;;;;4993114;28;20109;-64
2023/10/17 12:12:35;;;;;;;1.88;0.88;;;;;;;;;;4993207;28;20033;-64
2023/10/17 12:15:00;;;;;;;6.05;1.10;;;;;;;;;;4993281;28;20022;-64
2023/10/17 12:17:26;;;;;;;2.90;0.88;;;;;;;;;;4993234;28;20173;-64
2023/10/17 12:19:52;;;;;;;3.65;1.20;;;;;;;;;;4993288;28;20037;-63
2023/10/17 12:22:17;;;;;;;3.42;0.82;;;;;;;;;;4992989;28;20629;-64
2023/10/17 12:24:45;;;;;;;6.07;0.90;;;;;;;;;;4993430;28;20534;-65
2023/10/17 12:27:12;;;;;;;2.58;0.90;;;;;;;;;;4993023;28;20026;-63
2023/10/17 12:29:41;;;;;;;3.75;0.90;;;;;;;;;;4993152;28;20030;-64
2023/10/17 12:32:10;;;;;;;5.30;0.90;;;;;;;;;;4992848;28;20042;-63
2023/10/17 12:34:42;;;;;;;4.97;1.30;;;;;;;;;;4977793;28;20097;-65
2023/10/17 12:37:11;;;;;;;3.67;0.90;;;;;;;;;;4973516;28;20082;-65
2023/10/17 12:39:37;;;;;;;4.57;1.50;;;;;;;;;;4973567;28;20053;-64
2023/10/17 12:42:03;;;;;;;5.85;1.67;;;;;;;;;;4973568;28;20042;-64
2023/10/17 12:44:31;;;;;;;5.65;1.20;;;;;;;;;;4970266;28;20026;-64
2023/10/17 12:46:56;;;;;;;5.55;1.30;;;;;;;;;;4954338;28;20301;-63
2023/10/17 12:49:22;;;;;;;4.95;1.05;;;;;;;;;;4954287;28;20106;-63
2023/10/17 12:51:48;;;;;;;4.70;1.50;;;;;;;;;;4985747;28;20541;-63
2023/10/17 12:54:13;;;;;;;5.38;2.80;;;;;;;;;;4992904;28;20062;-63
2023/10/17 12:56:39;;;;;;;6.22;3.92;;;;;;;;;;4992968;28;20023;-65
2023/10/17 12:59:05;;;;;;;5.20;2.30;;;;;;;;;;4992956;28;20026;-64
2023/10/17 13:01:32;;;;;;;6.20;1.70;;;;;;;;;;4992954;28;20037;-65
2023/10/17 13:03:57;;;;;;;5.32;2.25;;;;;;;;;;4992605;28;20026;-64
2023/10/17 13:06:27;;;;;;;9.55;1.83;;;;;;;;;;4992795;28;20053;-64
2023/10/17 13:08:59;;;;;;;2.75;1.02;;;;;;;;;;4996777;28;20113;-64
2023/10/17 13:11:25;;;;;;;2.28;1.00;;;;;;;;;;4996747;28;20034;-64
2023/10/17 13:13:50;;;;;;;3.35;1.30;;;;;;;;;;4996543;28;20026;-63
2023/10/17 13:16:16;;;;;;;3.90;1.33;;;;;;;;;;4995349;28;20030;-64
2023/10/17 13:18:41;;;;;;;6.75;1.10;;;;;;;;;;4996518;28;20160;-64
2023/10/17 13:21:12;;;;;;;5.75;1.63;;;;;;;;;;4996197;28;20030;-63
2023/10/17 13:23:39;;;;;;;3.88;1.40;;;;;;;;;;4996440;28;20026;-64
2023/10/17 13:26:11;;;;;;;10.80;2.17;;;;;;;;;;4996246;28;20032;-63
2023/10/17 13:28:38;;;;;;;81.75;39.33;;;;;;;;;;4996278;28;20026;-63
2023/10/17 13:31:14;;;;;;;27.38;13.32;;;;;;;;;;4996414;28;20023;-64
2023/10/17 13:33:42;;;;;;;24.67;12.98;;;;;;;;;;4988216;28;20051;-64
2023/10/17 13:36:10;;;;;;;12.90;5.80;;;;;;;;;;4976366;28;20031;-64
2023/10/17 13:38:37;;;;;;;10.90;6.05;;;;;;;;;;4976637;28;20042;-64
2023/10/17 13:41:09;;;;;;;9.23;5.90;;;;;;;;;;4975290;28;20552;-64
2023/10/17 13:43:38;;;;;;;34.55;20.50;;;;;;;;;;4975753;28;20105;-64
2023/10/17 13:46:12;;;;;;;62.63;34.17;;;;;;;;;;4974725;28;20377;-63
2023/10/17 13:48:38;;;;;;;106.20;60.53;;;;;;;;;;4976599;28;20026;-63
2023/10/17 13:51:06;;;;;;;152.80;85.25;;;;;;;;;;4984755;28;20033;-63
2023/10/17 13:53:36;;;;;;;155.15;85.95;;;;;;;;;;4995868;28;20058;-63
2023/10/17 13:56:11;;;;;;;103.87;48.67;;;;;;;;;;4995814;28;20037;-63
2023/10/17 13:58:38;;;;;;;81.10;44.25;;;;;;;;;;4995860;28;20026;-64
2023/10/17 14:01:03;;;;;;;131.52;67.22;;;;;;;;;;4995584;28;20038;-62
2023/10/17 14:03:29;;;;;;;156.23;85.13;;;;;;;;;;4995236;28;20030;-62
2023/10/17 14:05:54;;;;;;;143.40;78.05;;;;;;;;;;4995673;28;20379;-63
2023/10/17 14:08:25;;;;;;;125.00;67.80;;;;;;;;;;4995659;28;20026;-63
2023/10/17 14:10:50;;;;;;;124.63;61.58;;;;;;;;;;4995580;28;20435;-63
2023/10/17 14:13:17;;;;;;;99.93;48.28;;;;;;;;;;4983783;28;20031;-62
2023/10/17 14:15:44;;;;;;;64.72;35.10;;;;;;;;;;4956721;28;20028;-64
2023/10/17 14:18:13;;;;;;;57.95;33.50;;;;;;;;;;4972665;28;20114;-63
2023/10/17 14:20:40;;;;;;;52.05;29.98;;;;;;;;;;4987448;28;20041;-64
2023/10/17 14:23:11;;;;;;;61.10;34.47;;;;;;;;;;4993905;28;20035;-64
2023/10/17 14:28:21;;;;;;;34.85;20.30;;;;;;;;;;4994293;28;20061;-63
2023/10/17 14:30:48;;;;;;;27.98;14.45;;;;;;;;;;4994815;28;20046;-65
2023/10/17 14:33:13;;;;;;;23.33;15.93;;;;;;;;;;4989920;28;20043;-64
2023/10/17 14:35:39;;;;;;;31.65;17.98;;;;;;;;;;4975510;28;20026;-64
2023/10/17 14:38:05;;;;;;;17.70;8.80;;;;;;;;;;4973673;28;20228;-64
2023/10/17 14:40:34;;;;;;;13.15;3.30;;;;;;;;;;4974095;28;20035;-64
2023/10/17 14:43:00;;;;;;;11.30;2.90;;;;;;;;;;4973096;28;20031;-64
2023/10/17 14:45:25;;;;;;;6.15;2.20;;;;;;;;;;4973511;28;20022;-65
2023/10/17 14:47:55;;;;;;;11.27;4.18;;;;;;;;;;4974987;28;20023;-64
2023/10/17 14:50:20;;;;;;;13.95;2.60;;;;;;;;;;4975338;28;20034;-63
2023/10/17 14:52:46;;;;;;;5.90;1.48;;;;;;;;;;4975380;28;20053;-63
2023/10/17 14:55:14;;;;;;;5.50;1.50;;;;;;;;;;4975661;28;20031;-64
2023/10/17 14:57:45;;;;;;;3.58;1.55;;;;;;;;;;4975396;28;20098;-63
2023/10/17 15:00:12;;;;;;;9.73;1.70;;;;;;;;;;4975687;28;20423;-63
2023/10/17 15:02:39;;;;;;;15.10;5.00;;;;;;;;;;4975181;28;20035;-65
2023/10/17 15:05:11;;;;;;;19.90;10.07;;;;;;;;;;4975295;28;20034;-64
2023/10/17 15:07:40;;;;;;;19.77;12.07;;;;;;;;;;4975473;28;20436;-63
2023/10/17 15:10:14;;;;;;;18.23;10.40;;;;;;;;;;4975317;28;20055;-64
2023/10/17 15:12:45;;;;;;;11.70;4.97;;;;;;;;;;4975346;28;20031;-63
2023/10/17 15:15:11;;;;;;;12.00;4.85;;;;;;;;;;4975246;28;20059;-63
2023/10/17 15:17:49;;;;;;;14.95;6.22;;;;;;;;;;4975036;28;20110;-63
2023/10/17 15:20:16;;;;;;;17.70;7.35;;;;;;;;;;4975262;28;20037;-63
2023/10/17 15:22:43;;;;;;;23.00;8.90;;;;;;;;;;4975204;28;20031;-63
2023/10/17 15:25:12;;;;;;;26.98;11.70;;;;;;;;;;4975072;28;20472;-63
2023/10/17 15:27:42;;;;;;;34.35;14.85;;;;;;;;;;4975092;28;20377;-64
2023/10/17 15:30:09;;;;;;;17.05;7.70;;;;;;;;;;4974672;28;20488;-64
2023/10/17 15:32:38;;;;;;;34.58;15.52;;;;;;;;;;4974410;28;20046;-62
2023/10/17 15:35:07;;;;;;;47.92;20.33;;;;;;;;;;4974637;28;20495;-62
2023/10/17 15:37:33;;;;;;;57.53;25.13;;;;;;;;;;4974827;28;20058;-62
2023/10/17 15:40:01;;;;;;;48.17;20.67;;;;;;;;;;4974674;28;20555;-63
2023/10/17 15:42:26;;;;;;;18.92;7.57;;;;;;;;;;4974699;28;20038;-63
2023/10/17 15:44:52;;;;;;;49.30;17.58;;;;;;;;;;4974555;28;20031;-63
2023/10/17 15:47:17;;;;;;;41.42;15.00;;;;;;;;;;4974398;28;20042;-66
2023/10/17 15:49:44;;;;;;;27.38;8.48;;;;;;;;;;4974770;28;20085;-64
2023/10/17 15:52:09;;;;;;;19.23;6.60;;;;;;;;;;4973363;28;20034;-64
2023/10/17 15:54:35;;;;;;;20.73;6.15;;;;;;;;;;4974713;28;20034;-64
2023/10/17 15:57:03;;;;;;;25.08;6.78;;;;;;;;;;4974672;28;20469;-65
2023/10/17 15:59:31;;;;;;;16.27;5.40;;;;;;;;;;4974384;28;20053;-64
2023/10/17 16:01:57;;;;;;;9.65;3.95;;;;;;;;;;4974238;28;20031;-64
2023/10/17 16:04:23;;;;;;;11.88;2.95;;;;;;;;;;4974513;28;20583;-64
2023/10/17 16:06:48;;;;;;;8.13;2.97;;;;;;;;;;4975190;28;20113;-64
2023/10/17 16:09:20;;;;;;;8.48;4.00;;;;;;;;;;4972353;28;20328;-64
2023/10/17 16:11:45;;;;;;;12.07;3.22;;;;;;;;;;4969009;28;20031;-64
2023/10/17 16:14:10;;;;;;;8.18;2.60;;;;;;;;;;4976615;28;20543;-64
2023/10/17 16:16:37;;;;;;;13.30;3.47;;;;;;;;;;4983461;28;20050;-64
2023/10/17 16:19:03;;;;;;;6.57;3.03;;;;;;;;;;4977215;28;20034;-64
2023/10/17 16:21:29;;;;;;;10.88;3.30;;;;;;;;;;4987659;28;20145;-64
2023/10/17 16:23:55;;;;;;;6.72;2.55;;;;;;;;;;4975315;28;20122;-65
2023/10/17 16:26:21;;;;;;;10.27;2.58;;;;;;;;;;4988614;28;20027;-63
2023/10/17 16:28:47;;;;;;;10.02;2.50;;;;;;;;;;4989145;28;20434;-63
2023/10/17 16:31:13;;;;;;;9.02;2.63;;;;;;;;;;4979270;28;20018;-64
2023/10/17 16:33:38;;;;;;;8.38;2.55;;;;;;;;;;4983859;28;20562;-64
2023/10/17 16:36:06;;;;;;;10.98;2.72;;;;;;;;;;4986322;28;20022;-63
2023/10/17 16:38:31;;;;;;;9.57;2.92;;;;;;;;;;4976980;28;20078;-64
2023/10/17 16:40:58;;;;;;;5.90;2.35;;;;;;;;;;4989370;28;20483;-63
2023/10/17 16:43:28;;;;;;;13.93;3.45;;;;;;;;;;4981747;28;20404;-63
2023/10/17 16:45:59;;;;;;;29.52;11.98;;;;;;;;;;4980339;28;20082;-63
2023/10/17 16:48:25;;;;;;;38.58;20.05;;;;;;;;;;4980627;28;20022;-63
2023/10/17 16:50:55;;;;;;;29.38;12.98;;;;;;;;;;4976258;28;20027;-63
2023/10/17 16:53:21;;;;;;;10.90;5.22;;;;;;;;;;4975991;28;20030;-63
2023/10/17 16:55:47;;;;;;;5.90;2.90;;;;;;;;;;4975216;28;20448;-63
2023/10/17 16:58:12;;;;;;;8.70;3.00;;;;;;;;;;4976222;28;20093;-63
2023/10/17 17:00:38;;;;;;;6.95;3.13;;;;;;;;;;4976716;28;20031;-63
2023/10/17 17:03:05;;;;;;;6.85;3.35;;;;;;;;;;4977351;28;20031;-64
2023/10/17 17:05:30;;;;;;;8.43;3.10;;;;;;;;;;4976528;28;20031;-63
2023/10/17 17:07:57;;;;;;;6.32;3.08;;;;;;;;;;4975577;28;20041;-63
2023/10/17 17:10:22;;;;;;;10.00;3.60;;;;;;;;;;4975709;28;20373;-63
2023/10/17 17:12:48;;;;;;;10.95;4.15;;;;;;;;;;4975871;28;20447;-64
2023/10/17 17:15:14;;;;;;;9.23;3.10;;;;;;;;;;4975683;28;20081;-63
2023/10/17 17:17:40;;;;;;;11.13;2.67;;;;;;;;;;4975961;28;20047;-63